Time;durP1;ratioP1;P1;durP2;ratioP2;P2;SDS_P1;SDS_P2;PMS_P1;PMS_P2;Temp;Humidity;BMP_temperature;BMP_pressure;BME280_temperature;BME280_humidity;BME280_pressure;Samples;Min_cycle;Max_cycle;Signal;HPM_P1;HPM_P2
2023/02/16 00:00:50;;;;;;;29.47;15.30;;;;;;;2.00;88.35;101661.25;4998007;28;20560;-79
2023/02/16 00:03:20;;;;;;;26.80;14.17;;;;;;;2.14;89.17;101661.09;4994078;28;20709;-79
2023/02/16 00:05:47;;;;;;;25.40;14.10;;;;;;;2.24;89.04;101666.22;4993881;28;20212;-79
2023/02/16 00:08:14;;;;;;;26.63;13.60;;;;;;;2.33;89.17;101665.22;4996400;28;20212;-79
2023/02/16 00:10:40;;;;;;;24.40;13.60;;;;;;;2.41;89.41;101663.34;4990733;28;20208;-79
2023/02/16 00:16:11;;;;;;;23.53;14.37;;;;;;;2.57;89.27;101674.53;4990788;28;20285;-79
2023/02/16 00:18:39;;;;;;;25.20;15.20;;;;;;;2.60;89.45;101675.34;4989240;28;20210;-79
2023/02/16 00:21:05;;;;;;;28.27;14.27;;;;;;;2.65;89.12;101678.78;4991692;28;20811;-80
2023/02/16 00:23:32;;;;;;;26.53;14.87;;;;;;;2.69;88.68;101679.59;4991773;28;20229;-80
2023/02/16 00:25:58;;;;;;;23.17;14.50;;;;;;;2.73;88.17;101678.66;4991671;28;20207;-80
2023/02/16 00:28:25;;;;;;;24.87;14.47;;;;;;;2.77;87.71;101683.88;4996453;28;20200;-80
2023/02/16 00:30:51;;;;;;;26.60;14.53;;;;;;;2.77;88.29;101675.97;4995084;28;20207;-80
2023/02/16 00:33:20;;;;;;;24.93;14.50;;;;;;;2.77;87.37;101675.97;5000193;28;20694;-79
2023/02/16 00:35:48;;;;;;;25.87;15.10;;;;;;;2.78;87.06;101677.72;4995429;28;20665;-80
2023/02/16 00:38:15;;;;;;;23.67;14.70;;;;;;;2.76;87.11;101674.22;4998207;28;20275;-79
2023/02/16 00:40:42;;;;;;;25.17;16.00;;;;;;;2.75;86.72;101674.25;4999458;28;20211;-79
2023/02/16 00:43:21;;;;;;;29.20;18.07;;;;;;;2.74;86.88;101667.25;4998233;28;20215;-79
2023/02/16 00:45:48;;;;;;;77.53;32.13;;;;;;;2.71;86.04;101655.00;5004452;28;20218;-79
2023/02/16 00:48:14;;;;;;;62.90;27.43;;;;;;;2.70;86.63;101652.41;4995195;28;20215;-80
2023/02/16 00:50:40;;;;;;;40.03;21.10;;;;;;;2.69;86.32;101663.81;4989367;28;20581;-80
2023/02/16 00:53:10;;;;;;;29.67;16.50;;;;;;;2.65;86.12;101663.00;4996566;28;20230;-79
2023/02/16 00:55:38;;;;;;;34.27;18.73;;;;;;;2.66;86.64;101654.22;5007300;28;20198;-79
2023/02/16 00:58:08;;;;;;;26.53;16.27;;;;;;;2.64;85.85;101640.22;4996651;28;20209;-79
2023/02/16 01:00:37;;;;;;;33.87;17.77;;;;;;;2.63;86.54;101640.25;4989415;28;20203;-80
2023/02/16 01:03:07;;;;;;;30.17;16.33;;;;;;;2.62;86.64;101642.00;4995151;28;20219;-80
2023/02/16 01:05:34;;;;;;;28.50;16.97;;;;;;;2.62;85.84;101636.75;4992927;28;20632;-79
2023/02/16 01:11:08;;;;;;;29.83;17.37;;;;;;;2.64;86.76;101642.88;4954554;29;20251;-79
2023/02/16 01:13:40;;;;;;;36.30;18.50;;;;;;;2.66;86.19;101641.09;4988525;28;20227;-79
2023/02/16 01:16:13;;;;;;;38.70;19.60;;;;;;;2.69;86.50;101632.25;4999013;28;20211;-79
2023/02/16 01:18:40;;;;;;;48.70;24.03;;;;;;;2.70;86.16;101624.34;5001413;28;20212;-78
2023/02/16 01:21:06;;;;;;;38.73;19.83;;;;;;;2.73;87.24;101605.88;4996059;28;20692;-79
2023/02/16 01:23:33;;;;;;;30.73;17.70;;;;;;;2.75;86.90;101601.47;4997986;28;20231;-80
2023/02/16 01:26:00;;;;;;;31.43;18.37;;;;;;;2.76;87.23;101597.94;4995049;28;20238;-80
2023/02/16 01:28:27;;;;;;;31.93;18.03;;;;;;;2.77;87.19;101599.69;4994134;28;20215;-80
2023/02/16 01:30:54;;;;;;;35.03;18.77;;;;;;;2.79;86.73;101600.53;4994732;28;20286;-79
2023/02/16 01:33:21;;;;;;;36.57;18.27;;;;;;;2.80;87.33;101598.78;4998028;28;20231;-80
2023/02/16 01:35:48;;;;;;;30.83;18.33;;;;;;;2.82;87.35;101589.09;4994356;28;20231;-79
2023/02/16 01:38:18;;;;;;;32.30;18.67;;;;;;;2.84;87.24;101595.22;4999894;28;20672;-79
2023/02/16 01:40:51;;;;;;;37.47;19.20;;;;;;;2.85;87.41;101601.34;4994501;28;20634;-80
2023/02/16 01:43:24;;;;;;;33.50;17.80;;;;;;;2.87;87.00;101599.53;4992926;28;20286;-80
2023/02/16 01:45:59;;;;;;;37.83;19.43;;;;;;;2.90;87.54;101597.72;4990293;28;20608;-80
2023/02/16 01:48:28;;;;;;;32.97;18.20;;;;;;;2.96;87.65;101604.66;4998539;28;20671;-79
2023/02/16 01:51:02;;;;;;;38.33;19.03;;;;;;;2.99;87.81;101607.22;4994890;28;20231;-80
2023/02/16 01:53:33;;;;;;;35.67;19.03;;;;;;;3.01;87.00;101603.69;4996824;28;20274;-79
2023/02/16 01:56:03;;;;;;;32.90;17.93;;;;;;;3.01;86.82;101605.44;5001322;28;20672;-79
2023/02/16 01:58:37;;;;;;;31.60;18.00;;;;;;;3.02;86.94;101599.28;4995926;28;20206;-79
2023/02/16 02:01:43;;;;;;;39.07;19.53;;;;;;;2.96;86.68;101592.34;4999380;28;20210;-80
2023/02/16 02:07:06;;;;;;;33.23;17.90;;;;;;;2.79;86.52;101586.50;4993020;28;20682;-79
2023/02/16 02:09:39;;;;;;;35.73;18.67;;;;;;;2.73;86.01;101587.47;4998789;28;20203;-80
2023/02/16 02:12:13;;;;;;;40.57;19.83;;;;;;;2.75;86.85;101593.56;4994404;28;20199;-80
2023/02/16 02:14:41;;;;;;;39.10;20.57;;;;;;;2.76;87.35;101590.06;4992326;28;20227;-80
2023/02/16 02:17:12;;;;;;;40.67;22.07;;;;;;;2.78;87.00;101587.41;4999471;28;20660;-79
2023/02/16 02:19:55;;;;;;;36.00;20.50;;;;;;;2.79;87.38;101592.63;5006671;28;20202;-80
2023/02/16 02:26:25;;;;;;;37.57;19.53;;;;;;;2.81;87.68;101582.09;4980033;28;20239;-80
2023/02/16 02:29:02;;;;;;;35.63;20.07;;;;;;;2.80;87.74;101561.94;4990349;28;20216;-79
2023/02/16 02:31:41;;;;;;;34.10;17.93;;;;;;;2.88;87.86;101574.94;4997460;28;20553;-79
2023/02/16 02:34:16;;;;;;;39.90;19.60;;;;;;;2.91;88.51;101567.00;5001577;28;20231;-79
2023/02/16 02:36:51;;;;;;;38.97;20.40;;;;;;;2.89;87.86;101561.78;4998193;28;20578;-79
2023/02/16 02:39:32;;;;;;;40.47;20.83;;;;;;;2.86;87.74;101571.50;4990062;28;20238;-79
2023/02/16 02:42:04;;;;;;;42.03;21.60;;;;;;;2.86;88.21;101571.50;4996718;28;20199;-79
2023/02/16 02:44:37;;;;;;;41.97;21.67;;;;;;;2.82;87.92;101567.19;4998630;28;20626;-80
2023/02/16 02:47:04;;;;;;;39.87;21.77;;;;;;;2.78;88.25;101564.59;4994973;28;20235;-79
2023/02/16 02:49:31;;;;;;;42.17;21.90;;;;;;;2.76;88.45;101569.00;4995791;28;20211;-80
2023/02/16 02:51:58;;;;;;;39.00;19.67;;;;;;;2.71;87.72;101560.31;4990415;28;20208;-80
2023/02/16 03:02:55;;;;;;;41.67;21.13;;;;;;;2.52;87.44;101561.50;4989675;28;20239;-79
2023/02/16 03:05:23;;;;;;;42.63;22.53;;;;;;;2.50;88.01;101572.97;4981906;28;20235;-79
2023/02/16 03:07:56;;;;;;;43.97;22.50;;;;;;;2.46;87.42;101569.50;4988114;28;20218;-79
2023/02/16 03:13:14;;;;;;;42.77;22.27;;;;;;;2.43;87.69;101574.81;4996407;28;20202;-79
2023/02/16 03:15:45;;;;;;;45.13;22.97;;;;;;;2.40;88.37;101578.34;4983342;28;20582;-79
2023/02/16 03:29:16;;;;;;;48.40;23.90;;;;;;;2.38;89.10;101579.25;4988141;28;20291;-79
2023/02/16 03:31:45;;;;;;;48.97;24.67;;;;;;;2.35;88.64;101588.06;4995807;28;20249;-81
2023/02/16 03:34:13;;;;;;;45.73;24.60;;;;;;;2.37;89.22;101590.66;4989957;28;20227;-81
2023/02/16 03:36:42;;;;;;;46.13;23.87;;;;;;;2.36;88.85;101575.78;4994146;28;20199;-81
2023/02/16 03:39:09;;;;;;;44.33;22.53;;;;;;;2.33;88.84;101586.38;4987946;28;20583;-81
2023/02/16 03:41:39;;;;;;;48.23;23.27;;;;;;;2.29;88.83;101592.56;4992604;28;20203;-81
2023/02/16 03:44:06;;;;;;;47.73;24.20;;;;;;;2.26;88.85;101588.22;4987312;28;20235;-82
2023/02/16 03:46:33;;;;;;;45.33;23.93;;;;;;;2.23;88.64;101582.13;4987614;28;20228;-81
2023/02/16 03:49:01;;;;;;;49.90;24.23;;;;;;;2.22;88.78;101596.16;4989549;28;20216;-80
2023/02/16 03:51:27;;;;;;;47.70;24.23;;;;;;;2.21;88.79;101587.41;4992658;28;20681;-81
2023/02/16 03:53:53;;;;;;;46.90;23.57;;;;;;;2.19;89.57;101586.53;4998382;28;20220;-81
2023/02/16 03:56:20;;;;;;;45.67;24.40;;;;;;;2.17;89.67;101590.06;5002894;28;20213;-81
2023/02/16 03:58:47;;;;;;;51.60;23.53;;;;;;;2.13;89.73;101583.16;4988782;28;20224;-82
2023/02/16 04:01:13;;;;;;;48.67;22.60;;;;;;;2.07;89.09;101592.84;4993334;28;20218;-82
2023/02/16 04:03:40;;;;;;;52.53;24.20;;;;;;;2.04;89.88;101600.75;4983216;28;20680;-81
2023/02/16 04:06:08;;;;;;;46.50;23.13;;;;;;;2.01;89.30;101582.41;4993686;28;20234;-81
2023/02/16 04:08:34;;;;;;;48.30;24.40;;;;;;;1.99;89.13;101585.94;4985017;28;20566;-81
2023/02/16 04:12:35;;;;;;;49.37;24.00;;;;;;;1.98;89.36;101585.06;4988255;28;20690;-81
2023/02/16 04:13:46;;;;;;;49.70;25.40;;;;;;;1.97;89.69;101603.50;4992795;28;20842;-81
2023/02/16 04:16:13;;;;;;;52.70;25.30;;;;;;;1.95;89.50;101597.41;4993956;28;20204;-81
2023/02/16 04:18:39;;;;;;;43.97;22.70;;;;;;;1.94;89.78;101582.53;4988087;28;20586;-82
2023/02/16 04:21:07;;;;;;;52.20;26.07;;;;;;;1.93;90.66;101592.16;4995340;28;20616;-81
2023/02/16 04:23:34;;;;;;;51.00;25.97;;;;;;;1.94;90.46;101598.28;4987780;28;20226;-82
2023/02/16 04:26:00;;;;;;;53.23;26.20;;;;;;;1.96;91.40;101596.50;4997584;28;20227;-81
2023/02/16 04:28:27;;;;;;;53.23;26.07;;;;;;;1.98;91.32;101587.69;4996997;28;20727;-82
2023/02/16 04:30:53;;;;;;;54.27;25.87;;;;;;;1.98;91.50;101585.06;4992898;28;20205;-82
2023/02/16 04:33:20;;;;;;;50.13;25.50;;;;;;;1.99;91.72;101591.19;4991774;28;20204;-81
2023/02/16 04:35:46;;;;;;;48.87;24.80;;;;;;;1.97;92.23;101591.22;4999922;28;20205;-81
2023/02/16 04:38:14;;;;;;;52.87;26.10;;;;;;;1.96;92.16;101580.75;5001173;28;20211;-81
2023/02/16 04:40:41;;;;;;;52.30;25.73;;;;;;;1.95;92.11;101587.75;4998206;28;20503;-81
2023/02/16 04:43:07;;;;;;;45.97;23.03;;;;;;;1.94;91.79;101577.28;4996341;28;20204;-81
2023/02/16 04:45:34;;;;;;;54.77;24.80;;;;;;;1.90;92.99;101565.94;4993759;28;20318;-81
2023/02/16 04:48:00;;;;;;;48.57;22.97;;;;;;;1.91;92.63;101564.16;4991325;28;20211;-81
2023/02/16 04:50:27;;;;;;;50.23;24.80;;;;;;;1.91;92.42;101556.28;5001754;28;20628;-80
2023/02/16 04:52:53;;;;;;;53.53;26.10;;;;;;;1.90;93.18;101544.91;4994455;28;20211;-80
2023/02/16 04:55:24;;;;;;;53.57;25.70;;;;;;;1.90;92.98;101544.91;4996293;28;20219;-81
2023/02/16 04:57:51;;;;;;;55.53;27.30;;;;;;;1.91;93.35;101535.28;5000929;28;20204;-80
2023/02/16 05:00:18;;;;;;;57.07;26.97;;;;;;;1.95;93.92;101534.34;4999353;28;20300;-81
2023/02/16 05:02:45;;;;;;;69.07;30.13;;;;;;;1.97;93.27;101533.41;4987700;28;20692;-81
2023/02/16 05:05:11;;;;;;;55.67;26.60;;;;;;;1.98;93.60;101532.53;4993045;28;20228;-81
2023/02/16 05:07:37;;;;;;;55.43;25.57;;;;;;;2.00;93.39;101535.13;4995705;28;20205;-80
2023/02/16 05:10:12;;;;;;;44.23;23.33;;;;;;;2.00;93.56;101533.38;4989858;28;20223;-82
2023/02/16 05:15:50;;;;;;;47.87;23.20;;;;;;;1.99;93.24;101544.78;4998556;28;20568;-82
2023/02/16 05:18:17;;;;;;;52.17;23.93;;;;;;;1.95;93.25;101548.34;4992348;28;20651;-82
2023/02/16 05:23:27;;;;;;;46.13;23.33;;;;;;;1.79;93.18;101541.56;4988321;28;20269;-81
2023/02/16 05:25:53;;;;;;;48.63;23.00;;;;;;;1.74;93.06;101548.63;4990818;28;20695;-81
2023/02/16 05:28:21;;;;;;;46.87;23.57;;;;;;;1.70;93.33;101547.81;4998148;28;20799;-81
2023/02/16 05:30:48;;;;;;;47.47;23.63;;;;;;;1.65;92.36;101556.63;4997700;28;20215;-81
2023/02/16 05:33:14;;;;;;;62.43;29.77;;;;;;;1.61;93.33;101549.69;4992087;28;20208;-81
2023/02/16 05:35:41;;;;;;;63.83;28.60;;;;;;;1.59;93.01;101551.47;4998380;28;20211;-81
2023/02/16 05:38:07;;;;;;;52.13;26.30;;;;;;;1.57;92.83;101550.59;5005242;28;20218;-81
2023/02/16 05:40:33;;;;;;;59.53;28.33;;;;;;;1.55;93.32;101558.50;4994838;28;20210;-81
2023/02/16 05:43:00;;;;;;;56.50;26.53;;;;;;;1.54;93.20;101561.13;4993394;28;20211;-81
2023/02/16 05:45:28;;;;;;;53.33;25.13;;;;;;;1.52;93.21;101557.66;4991416;28;20231;-82
2023/02/16 05:47:54;;;;;;;44.77;23.93;;;;;;;1.49;92.79;101557.69;4989731;28;20211;-81
2023/02/16 05:50:23;;;;;;;49.63;24.13;;;;;;;1.43;92.61;101552.53;4990521;28;20199;-82
2023/02/16 05:52:49;;;;;;;42.70;23.17;;;;;;;1.37;92.96;101553.47;4987143;28;20215;-81
2023/02/16 05:55:16;;;;;;;54.63;22.33;;;;;;;1.32;92.78;101556.13;4993175;28;20230;-80
2023/02/16 05:57:42;;;;;;;49.67;24.30;;;;;;;1.29;92.68;101558.78;4990215;28;20683;-80
2023/02/16 06:00:10;;;;;;;48.87;22.90;;;;;;;1.27;92.76;101554.41;4996252;28;20660;-80
2023/02/16 06:02:38;;;;;;;51.17;25.43;;;;;;;1.22;92.58;101554.50;4989753;28;20599;-80
2023/02/16 06:05:13;;;;;;;48.13;24.07;;;;;;;1.17;92.56;101558.91;4989648;28;20315;-81
2023/02/16 06:07:40;;;;;;;49.67;24.00;;;;;;;1.13;93.15;101558.97;4990057;28;20202;-81
2023/02/16 06:10:07;;;;;;;49.93;23.67;;;;;;;1.12;92.84;101555.47;4989574;28;20220;-81
2023/02/16 06:12:34;;;;;;;51.20;24.77;;;;;;;1.11;93.19;101556.34;4988157;28;20668;-81
2023/02/16 06:15:01;;;;;;;52.27;25.33;;;;;;;1.10;92.89;101558.97;5000605;28;20698;-81
2023/02/16 06:17:27;;;;;;;54.17;24.53;;;;;;;1.10;92.83;101564.22;4993158;28;20202;-80
2023/02/16 06:19:55;;;;;;;50.33;24.00;;;;;;;1.10;93.36;101554.59;4994704;28;20203;-81
2023/02/16 06:22:21;;;;;;;56.60;24.70;;;;;;;1.13;93.45;101553.72;4996718;28;20218;-81
2023/02/16 06:24:48;;;;;;;52.60;24.77;;;;;;;1.12;93.86;101552.84;4993900;28;20230;-82
2023/02/16 06:27:20;;;;;;;48.03;24.13;;;;;;;1.12;93.51;101565.09;4991211;28;20239;-81
2023/02/16 06:29:46;;;;;;;48.33;23.80;;;;;;;1.10;94.00;101559.84;4993324;28;20207;-82
2023/02/16 06:32:13;;;;;;;50.87;24.80;;;;;;;1.11;93.80;101568.59;4985724;28;21723;-82
2023/02/16 06:34:39;;;;;;;54.23;24.43;;;;;;;1.10;94.00;101554.59;4979035;28;20232;-82
2023/02/16 06:37:07;;;;;;;50.67;23.37;;;;;;;1.10;93.89;101553.72;4992120;28;20211;-82
2023/02/16 06:39:34;;;;;;;49.07;24.17;;;;;;;1.10;94.05;101553.72;4985490;28;20215;-82
2023/02/16 06:42:00;;;;;;;50.17;24.33;;;;;;;1.08;94.08;101555.50;4985619;28;20208;-83
2023/02/16 06:44:27;;;;;;;47.10;23.33;;;;;;;1.09;94.53;101563.34;4990140;28;20242;-83
2023/02/16 06:46:53;;;;;;;49.97;25.37;;;;;;;1.08;94.50;101569.47;4992138;28;20658;-84
2023/02/16 06:49:21;;;;;;;49.53;25.93;;;;;;;1.07;94.64;101564.28;4992423;28;20299;-83
2023/02/16 06:51:48;;;;;;;54.70;25.13;;;;;;;1.08;94.37;101552.88;4985664;28;20208;-82
2023/02/16 06:54:17;;;;;;;53.90;25.83;;;;;;;1.08;94.60;101566.84;4973370;28;20236;-83
2023/02/16 06:56:43;;;;;;;59.93;26.50;;;;;;;1.09;94.79;101567.72;4974385;28;20256;-83
2023/02/16 06:59:11;;;;;;;58.87;27.90;;;;;;;1.10;94.96;101565.09;4979239;28;20208;-84
2023/02/16 07:01:37;;;;;;;50.83;22.63;;;;;;;1.11;94.91;101552.84;4993248;28;20842;-82
2023/02/16 07:04:04;;;;;;;45.00;23.07;;;;;;;1.16;95.23;101565.03;4993095;28;20234;-82
2023/02/16 07:06:31;;;;;;;51.23;25.17;;;;;;;1.22;95.79;101554.50;4993058;28;20238;-84
2023/02/16 07:08:58;;;;;;;46.67;22.90;;;;;;;1.29;96.04;101571.91;4992694;28;20211;-83
2023/02/16 07:11:26;;;;;;;46.77;21.23;;;;;;;1.34;95.40;101579.72;4992681;28;20210;-84
2023/02/16 07:13:52;;;;;;;43.77;22.77;;;;;;;1.35;95.80;101569.22;4992772;28;20278;-83
2023/02/16 07:16:19;;;;;;;41.43;21.90;;;;;;;1.35;95.51;101570.97;4993445;28;20219;-83
2023/02/16 07:18:46;;;;;;;46.43;22.53;;;;;;;1.35;95.56;101560.47;4992808;28;20235;-82
2023/02/16 07:21:13;;;;;;;46.50;21.60;;;;;;;1.39;95.90;101556.94;4993120;28;20273;-83
2023/02/16 07:23:40;;;;;;;49.63;21.87;;;;;;;1.54;96.64;101555.88;4993033;28;20223;-82
2023/02/16 07:26:06;;;;;;;44.57;22.13;;;;;;;1.64;97.47;101558.38;4992594;28;20231;-83
2023/02/16 07:28:34;;;;;;;44.97;22.93;;;;;;;1.75;97.12;101571.38;4992636;28;20208;-82
2023/02/16 07:31:06;;;;;;;45.37;21.50;;;;;;;1.85;97.41;101564.25;4993485;28;20204;-81
2023/02/16 07:33:33;;;;;;;39.83;20.80;;;;;;;1.96;97.74;101559.75;4989293;28;20634;-81
2023/02/16 07:35:59;;;;;;;44.27;19.33;;;;;;;2.12;97.95;101565.66;4990725;28;20258;-82
2023/02/16 07:38:26;;;;;;;42.77;21.10;;;;;;;2.22;97.67;101561.97;4989248;28;20246;-81
2023/02/16 07:40:52;;;;;;;40.23;19.37;;;;;;;2.36;98.07;101555.63;4984968;28;20208;-83
2023/02/16 07:43:18;;;;;;;36.93;18.17;;;;;;;2.51;97.59;101566.81;4981919;28;20212;-83
2023/02/16 07:45:48;;;;;;;36.87;18.97;;;;;;;2.62;97.32;101560.50;4993042;28;20308;-83
2023/02/16 07:48:14;;;;;;;36.77;20.10;;;;;;;2.76;96.68;101570.78;4994884;28;20218;-84
2023/02/16 07:50:40;;;;;;;31.53;15.03;;;;;;;2.88;95.33;101569.69;4994866;28;20205;-83
2023/02/16 07:53:07;;;;;;;36.63;19.13;;;;;;;3.00;94.74;101569.50;4999458;28;20207;-84
2023/02/16 07:55:39;;;;;;;28.93;16.73;;;;;;;3.10;93.51;101561.41;4993264;28;20199;-82
2023/02/16 07:58:05;;;;;;;31.13;17.20;;;;;;;3.20;92.99;101562.13;4995722;28;20897;-82
2023/02/16 08:00:32;;;;;;;35.03;18.00;;;;;;;3.30;92.36;101568.94;4994295;28;20287;-82
2023/02/16 08:03:00;;;;;;;33.47;18.60;;;;;;;3.40;91.04;101559.94;4994542;28;20223;-82
2023/02/16 08:05:26;;;;;;;34.47;17.83;;;;;;;3.45;90.36;101571.25;4992856;28;20228;-83
2023/02/16 08:07:53;;;;;;;38.10;19.13;;;;;;;3.49;90.19;101572.94;4996544;28;20716;-83
2023/02/16 08:10:20;;;;;;;38.77;20.33;;;;;;;3.54;89.67;101569.38;4995758;28;20572;-82
2023/02/16 08:12:48;;;;;;;35.83;19.23;;;;;;;3.55;88.88;101577.25;4992476;28;20227;-83
2023/02/16 08:15:15;;;;;;;38.80;20.90;;;;;;;3.60;88.94;101582.41;4994046;28;20230;-82
2023/02/16 08:17:42;;;;;;;44.10;20.53;;;;;;;3.59;88.96;101580.66;4997244;28;20203;-83
2023/02/16 08:20:11;;;;;;;35.03;19.30;;;;;;;3.62;88.33;101588.50;4991769;28;20212;-83
2023/02/16 08:22:37;;;;;;;38.00;20.17;;;;;;;3.66;88.73;101582.28;4998468;28;20543;-82
2023/02/16 08:25:04;;;;;;;38.93;21.00;;;;;;;3.74;87.65;101585.66;4992770;28;20259;-83
2023/02/16 08:27:31;;;;;;;36.40;18.20;;;;;;;3.83;87.36;101572.25;4994909;28;20262;-83
2023/02/16 08:29:57;;;;;;;40.03;20.17;;;;;;;3.90;86.50;101570.38;4998245;28;20625;-83
2023/02/16 08:32:24;;;;;;;30.90;17.13;;;;;;;3.96;86.77;101572.88;4998628;28;20699;-83
2023/02/16 08:34:51;;;;;;;30.03;17.37;;;;;;;4.04;85.48;101569.19;4999341;28;20238;-83
2023/02/16 08:37:18;;;;;;;29.87;17.07;;;;;;;4.12;85.41;101566.38;4999720;28;20206;-83
2023/02/16 08:39:45;;;;;;;32.27;18.13;;;;;;;4.17;84.73;101573.28;4997206;28;20208;-83
2023/02/16 08:42:13;;;;;;;28.20;16.03;;;;;;;4.23;84.26;101567.00;4999598;28;20204;-82
2023/02/16 08:44:41;;;;;;;30.93;16.90;;;;;;;4.30;83.35;101570.38;4990674;28;20223;-81
2023/02/16 08:47:08;;;;;;;33.57;16.90;;;;;;;4.36;82.35;101567.56;5002789;28;20246;-81
2023/02/16 08:49:34;;;;;;;29.10;16.60;;;;;;;4.41;82.38;101566.56;4999287;28;20541;-82
2023/02/16 08:52:03;;;;;;;29.17;15.97;;;;;;;4.45;81.39;101564.75;4991559;28;20207;-82
2023/02/16 08:54:32;;;;;;;30.87;17.10;;;;;;;4.51;80.26;101570.72;4996981;28;20242;-82
2023/02/16 08:57:01;;;;;;;32.77;17.00;;;;;;;4.58;80.07;101566.19;4997777;28;20204;-81
2023/02/16 08:59:28;;;;;;;27.57;16.17;;;;;;;4.67;79.60;101573.84;5008604;28;20203;-82
2023/02/16 09:01:55;;;;;;;30.17;16.83;;;;;;;4.74;79.60;101570.19;5002059;28;20831;-82
2023/02/16 09:04:23;;;;;;;33.40;15.73;;;;;;;4.84;79.08;101561.09;4999726;28;20227;-82
2023/02/16 09:06:50;;;;;;;26.33;15.57;;;;;;;4.96;78.95;101561.72;4989697;28;20314;-82
2023/02/16 09:09:17;;;;;;;27.17;15.10;;;;;;;5.07;78.96;101560.53;4993135;28;20219;-82
2023/02/16 09:11:45;;;;;;;26.03;15.23;;;;;;;5.19;78.26;101554.06;4999411;28;20210;-82
2023/02/16 09:14:12;;;;;;;27.23;15.80;;;;;;;5.28;77.81;101552.94;4997713;28;20251;-82
2023/02/16 09:16:44;;;;;;;31.80;16.97;;;;;;;5.35;77.38;101552.75;4996890;28;20483;-82
2023/02/16 09:19:12;;;;;;;32.60;17.33;;;;;;;5.39;76.49;101546.44;4988994;28;20208;-81
2023/02/16 09:21:39;;;;;;;28.10;15.97;;;;;;;5.46;76.36;101547.16;4996124;28;20864;-83
2023/02/16 09:24:06;;;;;;;32.43;17.50;;;;;;;5.51;76.03;101551.41;4994219;28;20708;-81
2023/02/16 09:26:35;;;;;;;28.43;16.73;;;;;;;5.59;75.54;101549.41;4992600;28;20850;-82
2023/02/16 09:29:03;;;;;;;25.67;15.20;;;;;;;5.67;75.39;101535.13;4995689;28;20262;-82
2023/02/16 09:31:32;;;;;;;28.43;16.30;;;;;;;5.70;75.05;101550.88;4996387;28;20204;-83
2023/02/16 09:34:01;;;;;;;25.37;15.33;;;;;;;5.77;74.99;101552.44;4990772;28;20239;-82
2023/02/16 09:36:28;;;;;;;29.70;17.03;;;;;;;5.80;74.42;101555.84;4991512;28;20200;-82
2023/02/16 09:38:55;;;;;;;31.03;16.57;;;;;;;5.83;74.27;101560.19;4991159;28;20208;-82
2023/02/16 09:41:41;;;;;;;28.77;16.73;;;;;;;5.91;74.62;101560.88;4987957;28;20230;-82
2023/02/16 09:44:20;;;;;;;26.30;15.60;;;;;;;5.93;74.13;101561.66;4987798;28;20230;-82
2023/02/16 09:46:49;;;;;;;29.83;16.53;;;;;;;5.98;73.75;101562.41;4988787;28;20222;-83
2023/02/16 09:49:24;;;;;;;28.67;16.07;;;;;;;6.00;73.50;101560.59;4993129;28;20270;-82
2023/02/16 09:51:59;;;;;;;27.53;16.40;;;;;;;6.05;73.10;101553.38;4985576;28;20637;-82
2023/02/16 09:54:35;;;;;;;27.27;16.07;;;;;;;6.11;73.17;101550.53;4997574;28;20242;-83
2023/02/16 09:57:07;;;;;;;28.10;16.10;;;;;;;6.22;73.15;101539.66;4997265;28;20715;-83
2023/02/16 09:59:46;;;;;;;30.47;16.40;;;;;;;6.31;72.68;101543.78;4996543;28;20298;-82
2023/02/16 10:02:39;;;;;;;29.80;17.17;;;;;;;6.39;72.50;101552.34;4996139;28;20290;-82
2023/02/16 10:05:18;;;;;;;32.73;17.47;;;;;;;6.38;72.80;101554.13;4988352;28;20239;-82
2023/02/16 10:07:55;;;;;;;30.33;17.87;;;;;;;6.39;72.85;101547.91;4981654;28;20286;-82
2023/02/16 10:10:25;;;;;;;30.23;17.67;;;;;;;6.43;72.47;101556.63;4994933;28;20682;-82
2023/02/16 10:12:56;;;;;;;26.07;15.37;;;;;;;6.47;72.70;101571.47;4986970;28;20653;-82
2023/02/16 10:15:29;;;;;;;34.43;17.63;;;;;;;6.50;73.04;101561.66;4994123;28;20231;-82
2023/02/16 10:17:59;;;;;;;27.63;17.50;;;;;;;6.56;72.07;101571.19;4987948;28;20724;-82
2023/02/16 10:20:31;;;;;;;32.83;17.77;;;;;;;6.61;72.17;101566.63;4993834;28;20214;-82
2023/02/16 10:23:04;;;;;;;33.20;17.97;;;;;;;6.63;71.58;101563.94;4994180;28;20672;-81
2023/02/16 10:25:40;;;;;;;29.60;17.47;;;;;;;6.62;72.27;101571.00;5002299;28;20227;-82
2023/02/16 10:28:15;;;;;;;32.53;17.57;;;;;;;6.64;72.55;101566.50;4998976;28;20703;-81
2023/02/16 10:30:50;;;;;;;29.07;15.33;;;;;;;6.68;71.92;101576.09;4995715;28;20199;-82
2023/02/16 10:33:27;;;;;;;24.70;15.97;;;;;;;6.68;71.58;101569.91;4990742;28;20534;-83
2023/02/16 10:36:00;;;;;;;25.77;16.60;;;;;;;6.68;71.38;101577.88;4988627;28;20261;-82
2023/02/16 10:38:36;;;;;;;25.30;16.17;;;;;;;6.73;70.78;101563.56;4991289;28;20574;-83
2023/02/16 10:41:12;;;;;;;28.70;16.50;;;;;;;6.81;70.11;101571.25;4989755;28;20227;-83
2023/02/16 10:43:45;;;;;;;24.13;15.63;;;;;;;6.84;69.54;101563.19;4995327;28;20914;-83
2023/02/16 10:46:19;;;;;;;27.83;16.00;;;;;;;6.89;70.19;101551.56;4993077;28;20204;-82
2023/02/16 10:48:46;;;;;;;28.33;17.03;;;;;;;6.99;68.89;101545.97;4988829;28;20218;-80
2023/02/16 10:51:17;;;;;;;30.93;17.53;;;;;;;6.99;69.15;101543.31;4982469;28;20219;-82
2023/02/16 10:53:48;;;;;;;29.47;15.70;;;;;;;7.03;68.74;101529.88;4993802;28;20220;-82
2023/02/16 10:56:48;;;;;;;23.47;14.87;;;;;;;7.09;68.65;101542.06;4983578;28;20244;-81
2023/02/16 10:59:18;;;;;;;23.90;16.40;;;;;;;7.12;69.20;101537.53;4993181;28;20306;-82
2023/02/16 11:01:48;;;;;;;29.73;16.37;;;;;;;7.19;68.16;101544.31;4991100;28;20237;-81
2023/02/16 11:04:40;;;;;;;27.83;16.33;;;;;;;7.28;68.59;101544.00;4995059;28;20242;-82
2023/02/16 11:07:09;;;;;;;25.20;15.90;;;;;;;7.37;68.88;101550.75;4987052;28;20216;-81
2023/02/16 11:09:36;;;;;;;28.13;17.20;;;;;;;7.45;68.86;101553.13;4992863;28;20571;-81
2023/02/16 11:12:16;;;;;;;30.57;16.80;;;;;;;7.52;67.92;101536.97;4994132;28;20580;-82
2023/02/16 11:14:50;;;;;;;25.77;15.63;;;;;;;7.60;67.59;101536.66;4988871;28;20223;-82
2023/02/16 11:17:19;;;;;;;24.47;15.43;;;;;;;7.63;67.21;101542.72;4997029;28;20226;-84
2023/02/16 11:19:52;;;;;;;26.17;15.93;;;;;;;7.59;66.09;101541.09;4984750;28;20204;-81
2023/02/16 11:22:33;;;;;;;27.27;15.73;;;;;;;7.53;65.76;101546.63;4991303;28;20298;-81
2023/02/16 11:25:25;;;;;;;23.17;15.53;;;;;;;7.54;65.63;101550.13;4990860;28;20711;-82
2023/02/16 11:27:54;;;;;;;24.37;15.50;;;;;;;7.56;65.55;101554.47;4987940;28;20215;-80
2023/02/16 11:30:30;;;;;;;23.60;15.10;;;;;;;7.57;66.61;101537.66;4982179;28;20235;-80
2023/02/16 11:33:01;;;;;;;27.93;16.17;;;;;;;7.55;66.36;101539.50;4984436;28;20214;-80
2023/02/16 11:35:30;;;;;;;25.30;16.40;;;;;;;7.56;66.21;101522.66;4986871;28;20227;-81
2023/02/16 11:37:57;;;;;;;23.57;14.53;;;;;;;7.55;66.15;101518.28;4988409;28;20227;-81
2023/02/16 11:40:27;;;;;;;22.97;13.83;;;;;;;7.60;65.78;101516.34;4991272;28;20211;-81
2023/02/16 11:42:57;;;;;;;26.20;15.00;;;;;;;7.60;65.53;101513.69;4986162;28;20215;-81
2023/02/16 11:45:27;;;;;;;22.93;14.77;;;;;;;7.60;65.19;101518.97;4985930;28;20262;-81
2023/02/16 11:47:56;;;;;;;26.43;15.53;;;;;;;7.62;65.79;101514.50;4978787;28;20216;-81
2023/02/16 11:50:28;;;;;;;21.53;14.83;;;;;;;7.66;65.28;101515.25;4987858;28;20204;-82
2023/02/16 11:52:57;;;;;;;23.83;13.80;;;;;;;7.70;66.33;101523.97;4985385;28;20274;-81
2023/02/16 11:55:46;;;;;;;23.00;15.30;;;;;;;7.74;65.20;101526.41;4990267;28;20631;-82
2023/02/16 11:58:21;;;;;;;21.73;14.50;;;;;;;7.74;65.35;101521.09;4988725;28;20620;-81
2023/02/16 12:01:00;;;;;;;26.73;16.03;;;;;;;7.76;65.41;101515.75;4984782;28;20242;-82
2023/02/16 12:03:36;;;;;;;20.70;13.87;;;;;;;7.78;65.25;101512.13;4983652;28;20626;-81
2023/02/16 12:06:27;;;;;;;24.73;15.10;;;;;;;7.81;65.46;101508.50;4987348;28;20218;-81
2023/02/16 12:09:07;;;;;;;22.73;15.07;;;;;;;7.87;65.20;101516.22;4984846;28;20215;-81